createdAt,value
2023-02-27T00:02:20.171Z,2.10
2023-02-27T00:04:48.071Z,2.20
2023-02-27T00:07:15.988Z,1.95
2023-02-27T00:09:43.927Z,2.22
2023-02-27T00:12:13.062Z,1.83
2023-02-27T00:14:41.020Z,2.13
2023-02-27T00:17:09.100Z,2.50
2023-02-27T00:19:37.031Z,2.60
2023-02-27T00:22:07.426Z,3.30
2023-02-27T00:24:35.483Z,2.65
2023-02-27T00:27:04.386Z,2.15
2023-02-27T00:29:36.049Z,1.90
2023-02-27T00:32:04.679Z,2.10
2023-02-27T00:34:32.716Z,1.95
2023-02-27T00:37:00.618Z,1.80
2023-02-27T00:39:28.959Z,1.85
2023-02-27T00:41:57.035Z,1.90
2023-02-27T00:44:25.265Z,1.55
2023-02-27T00:46:53.174Z,2.10
2023-02-27T00:49:21.805Z,2.03
2023-02-27T00:51:49.728Z,1.80
2023-02-27T00:54:17.565Z,1.73
2023-02-27T00:56:45.522Z,2.40
2023-02-27T00:59:13.493Z,1.73
2023-02-27T01:01:41.660Z,2.00
2023-02-27T01:04:09.521Z,1.92
2023-02-27T01:06:37.434Z,1.55
2023-02-27T01:09:05.515Z,1.60
2023-02-27T01:11:34.355Z,1.77
2023-02-27T01:14:02.438Z,1.98
2023-02-27T01:16:30.600Z,1.83
2023-02-27T01:18:58.535Z,1.83
2023-02-27T01:21:26.819Z,2.17
2023-02-27T01:23:54.968Z,2.22
2023-02-27T01:26:22.902Z,1.90
2023-02-27T01:28:50.812Z,1.88
2023-02-27T01:31:18.772Z,1.65
2023-02-27T01:33:46.698Z,1.80
2023-02-27T01:36:14.668Z,1.67
2023-02-27T01:38:44.235Z,1.77
2023-02-27T01:41:13.631Z,1.70
2023-02-27T01:44:21.526Z,2.05
2023-02-27T01:46:49.504Z,1.80
2023-02-27T01:49:22.763Z,1.60
2023-02-27T01:52:02.948Z,1.70
2023-02-27T01:54:33.488Z,1.95
2023-02-27T01:57:07.701Z,1.75
2023-02-27T01:59:37.496Z,1.97
2023-02-27T02:02:14.202Z,2.13
2023-02-27T02:04:42.384Z,2.00
2023-02-27T02:07:15.915Z,1.70
2023-02-27T02:09:49.508Z,1.85
2023-02-27T02:12:21.493Z,2.08
2023-02-27T02:14:49.409Z,1.92
2023-02-27T02:17:41.282Z,2.30
2023-02-27T02:20:24.300Z,2.20
2023-02-27T02:23:32.214Z,2.35
2023-02-27T02:26:25.003Z,2.60
2023-02-27T02:29:10.696Z,1.90
2023-02-27T02:32:06.734Z,1.95
2023-02-27T02:35:05.232Z,1.70
2023-02-27T02:37:36.183Z,2.10
2023-02-27T02:40:15.442Z,1.90
2023-02-27T02:43:05.979Z,2.45
2023-02-27T02:45:55.992Z,1.93
2023-02-27T02:48:46.174Z,2.17
2023-02-27T02:51:23.488Z,2.15
2023-02-27T02:54:15.317Z,2.10
2023-02-27T02:56:52.502Z,2.55
2023-02-27T02:59:33.206Z,2.30
2023-02-27T03:02:05.857Z,1.80
2023-02-27T03:04:45.550Z,2.28
2023-02-27T03:07:36.521Z,1.92
2023-02-27T03:10:10.985Z,2.42
2023-02-27T03:12:42.715Z,1.60
2023-02-27T03:15:19.986Z,1.98
2023-02-27T03:17:57.046Z,1.90
2023-02-27T03:20:35.019Z,1.80
2023-02-27T03:23:10.251Z,1.60
2023-02-27T03:25:40.088Z,1.38
2023-02-27T03:28:12.162Z,1.40
2023-02-27T03:31:02.712Z,1.35
2023-02-27T03:33:36.409Z,1.10
2023-02-27T03:36:29.568Z,1.30
2023-02-27T03:39:27.524Z,1.35
2023-02-27T03:42:09.065Z,2.15
2023-02-27T03:45:16.235Z,1.60
2023-02-27T03:50:12.730Z,1.27
2023-02-27T03:52:41.592Z,1.55
2023-02-27T03:55:26.521Z,1.33
2023-02-27T03:57:55.327Z,1.45
2023-02-27T04:00:26.164Z,1.55
2023-02-27T04:02:57.148Z,1.30
2023-02-27T04:05:28.390Z,1.90
2023-02-27T04:08:36.408Z,1.27
2023-02-27T04:11:33.424Z,1.45
2023-02-27T04:14:31.401Z,1.60
2023-02-27T04:17:14.129Z,1.58
2023-02-27T04:20:03.239Z,1.40
2023-02-27T04:22:45.625Z,1.85
2023-02-27T04:25:28.433Z,1.70
2023-02-27T04:28:15.118Z,2.25
2023-02-27T04:31:14.703Z,1.58
2023-02-27T04:34:01.308Z,1.90
2023-02-27T04:36:36.123Z,1.70
2023-02-27T04:39:21.800Z,1.85
2023-02-27T04:41:59.409Z,1.30
2023-02-27T04:44:30.293Z,1.50
2023-02-27T04:47:00.759Z,1.42
2023-02-27T04:49:34.185Z,1.52
2023-02-27T04:52:11.951Z,1.80
2023-02-27T04:54:46.804Z,1.52
2023-02-27T04:57:20.720Z,1.20
2023-02-27T04:59:52.508Z,1.58
2023-02-27T05:02:36.993Z,1.90
2023-02-27T05:05:12.456Z,2.22
2023-02-27T05:07:49.858Z,1.50
2023-02-27T05:10:41.801Z,1.67
2023-02-27T05:13:16.095Z,1.60
2023-02-27T05:15:54.142Z,1.60
2023-02-27T05:18:24.019Z,1.60
2023-02-27T05:21:13.454Z,1.67
2023-02-27T05:24:04.780Z,2.20
2023-02-27T05:27:03.292Z,1.80
2023-02-27T05:29:51.071Z,1.63
2023-02-27T05:32:39.319Z,1.50
2023-02-27T05:35:14.387Z,1.88
2023-02-27T05:38:07.617Z,1.83
2023-02-27T05:40:43.119Z,1.90
2023-02-27T05:43:22.909Z,1.80
2023-02-27T05:45:54.436Z,2.78
2023-02-27T05:48:33.425Z,2.90
2023-02-27T05:51:02.432Z,2.15
2023-02-27T05:53:35.057Z,2.30
2023-02-27T05:56:06.284Z,1.90
2023-02-27T06:03:38.080Z,3.30
2023-02-27T06:06:14.553Z,4.00
2023-02-27T06:08:42.531Z,4.10
2023-02-27T06:11:10.498Z,3.28
2023-02-27T06:13:40.815Z,2.92
2023-02-27T06:18:46.541Z,3.70
2023-02-27T06:21:15.062Z,3.47
2023-02-27T06:23:42.929Z,3.38
2023-02-27T06:26:14.772Z,4.80
2023-02-27T06:28:43.506Z,5.20
2023-02-27T06:31:11.427Z,4.72
2023-02-27T06:33:39.505Z,5.60
2023-02-27T06:36:07.686Z,7.07
2023-02-27T06:38:35.701Z,3.47
2023-02-27T06:41:05.482Z,3.15
2023-02-27T06:43:35.864Z,3.70
2023-02-27T06:46:04.368Z,3.80
2023-02-27T06:48:33.513Z,3.60
2023-02-27T06:51:01.995Z,4.32
2023-02-27T06:53:29.962Z,5.13
2023-02-27T06:55:57.893Z,3.25
2023-02-27T06:58:26.271Z,2.38
2023-02-27T07:00:54.206Z,2.35
2023-02-27T07:03:22.115Z,3.47
2023-02-27T07:05:50.058Z,2.55
2023-02-27T07:08:18.779Z,2.13
2023-02-27T07:10:48.199Z,2.47
2023-02-27T07:13:19.313Z,2.38
2023-02-27T07:18:15.840Z,2.45
2023-02-27T07:20:43.956Z,2.50
2023-02-27T07:23:11.856Z,2.13
2023-02-27T07:25:39.932Z,2.08
2023-02-27T07:28:07.830Z,2.33
2023-02-27T07:30:35.823Z,2.20
2023-02-27T07:33:03.743Z,2.00
2023-02-27T07:35:31.971Z,2.83
2023-02-27T07:37:59.937Z,2.40
2023-02-27T07:40:27.953Z,1.90
2023-02-27T07:42:56.064Z,2.60
2023-02-27T07:45:24.392Z,1.70
2023-02-27T07:47:52.265Z,2.15
2023-02-27T07:50:20.245Z,1.75
2023-02-27T07:52:48.224Z,2.00
2023-02-27T07:55:16.292Z,1.67
2023-02-27T07:57:46.301Z,2.38
2023-02-27T08:00:15.124Z,2.40
2023-02-27T08:02:46.059Z,2.40
2023-02-27T08:05:14.026Z,2.03
2023-02-27T08:07:45.100Z,2.15
2023-02-27T08:10:17.823Z,1.70
2023-02-27T08:12:49.269Z,1.70
2023-02-27T08:15:18.402Z,1.60
2023-02-27T08:17:47.968Z,1.90
2023-02-27T08:20:16.897Z,1.50
2023-02-27T08:22:44.856Z,1.80
2023-02-27T08:25:13.048Z,1.70
2023-02-27T08:27:41.340Z,1.60
2023-02-27T08:30:12.481Z,1.75
2023-02-27T08:35:09.126Z,1.77
2023-02-27T08:37:37.108Z,1.90
2023-02-27T08:40:08.221Z,2.08
2023-02-27T08:42:36.197Z,2.28
2023-02-27T08:45:05.436Z,2.08
2023-02-27T08:47:33.519Z,2.08
2023-02-27T08:50:01.567Z,1.88
2023-02-27T08:52:29.538Z,1.80
2023-02-27T08:54:57.473Z,1.55
2023-02-27T08:57:25.460Z,1.40
2023-02-27T08:59:54.773Z,1.75
2023-02-27T09:02:27.064Z,1.40
2023-02-27T09:04:54.987Z,1.40
2023-02-27T09:07:22.864Z,1.52
2023-02-27T09:09:50.764Z,1.40
2023-02-27T09:12:18.624Z,1.50
2023-02-27T09:14:46.560Z,1.30
2023-02-27T09:17:14.430Z,1.33
2023-02-27T09:19:42.313Z,1.30
2023-02-27T09:22:10.211Z,1.58
2023-02-27T09:24:38.190Z,1.20
2023-02-27T09:27:06.256Z,1.33
2023-02-27T09:29:34.224Z,1.42
2023-02-27T09:32:02.344Z,2.10
2023-02-27T09:34:30.790Z,2.50
2023-02-27T09:37:23.349Z,2.00
2023-02-27T09:39:51.667Z,1.33
2023-02-27T09:42:23.449Z,1.35
2023-02-27T09:44:55.031Z,2.25
2023-02-27T09:47:29.906Z,1.60
2023-02-27T09:50:05.334Z,1.40
2023-02-27T09:52:36.912Z,1.00
2023-02-27T09:55:26.143Z,1.17
2023-02-27T09:58:22.834Z,1.35
2023-02-27T10:01:21.163Z,2.53
2023-02-27T10:04:00.002Z,2.08
2023-02-27T10:06:51.854Z,1.10
2023-02-27T10:09:56.263Z,0.90
2023-02-27T10:12:33.434Z,1.05
2023-02-27T10:15:10.005Z,1.20
2023-02-27T10:17:43.228Z,0.88
2023-02-27T10:20:33.354Z,3.20
2023-02-27T10:23:07.135Z,2.00
2023-02-27T10:25:44.992Z,1.88
2023-02-27T10:28:15.202Z,1.60
2023-02-27T10:30:49.056Z,1.80
2023-02-27T10:33:35.048Z,1.10
2023-02-27T10:36:04.533Z,0.90
2023-02-27T10:38:41.596Z,1.10
2023-02-27T10:41:16.715Z,0.90
2023-02-27T10:43:45.283Z,0.80
2023-02-27T10:46:26.337Z,1.35
2023-02-27T10:48:57.429Z,0.80
2023-02-27T10:51:32.405Z,1.00
2023-02-27T10:54:24.613Z,0.80
2023-02-27T10:57:02.023Z,1.00
2023-02-27T10:59:41.528Z,0.80
2023-02-27T11:02:18.256Z,0.95
2023-02-27T11:04:57.389Z,1.00
2023-02-27T11:07:37.546Z,0.90
2023-02-27T11:10:17.925Z,1.05
2023-02-27T11:13:03.566Z,0.80
2023-02-27T11:15:34.794Z,1.02
2023-02-27T11:18:30.282Z,0.80
2023-02-27T11:21:28.454Z,0.88
2023-02-27T11:24:04.759Z,1.35
2023-02-27T11:26:42.576Z,1.92
2023-02-27T11:29:19.526Z,1.00
2023-02-27T11:31:49.818Z,1.10
2023-02-27T11:34:41.320Z,1.27
2023-02-27T11:37:23.368Z,0.75
2023-02-27T11:40:13.927Z,1.02
2023-02-27T11:42:53.401Z,1.17
2023-02-27T11:46:04.713Z,1.00
2023-02-27T11:48:45.220Z,0.82
2023-02-27T11:51:35.508Z,0.70
2023-02-27T11:54:22.612Z,0.85
2023-02-27T11:57:05.434Z,0.90
2023-02-27T11:59:39.841Z,0.80
2023-02-27T12:02:16.959Z,0.80
2023-02-27T12:05:02.905Z,1.00
2023-02-27T12:07:45.932Z,0.70
2023-02-27T12:10:21.856Z,0.77
2023-02-27T12:13:16.617Z,1.10
2023-02-27T12:16:04.101Z,1.02
2023-02-27T12:18:44.472Z,1.00
2023-02-27T12:21:22.151Z,0.60
2023-02-27T12:24:17.600Z,1.05
2023-02-27T12:26:48.533Z,1.20
2023-02-27T12:29:20.375Z,1.17
2023-02-27T12:31:58.547Z,0.85
2023-02-27T12:34:30.723Z,0.88
2023-02-27T12:37:11.611Z,0.90
2023-02-27T12:39:45.749Z,0.98
2023-02-27T12:42:19.555Z,0.80
2023-02-27T12:45:22.894Z,1.00
2023-02-27T12:47:59.852Z,1.27
2023-02-27T12:50:42.680Z,1.30
2023-02-27T12:53:33.200Z,0.93
2023-02-27T12:56:20.465Z,0.90
2023-02-27T12:59:03.476Z,3.03
2023-02-27T13:01:52.788Z,1.30
2023-02-27T13:04:45.327Z,1.02
2023-02-27T13:07:24.260Z,0.90
2023-02-27T13:10:02.823Z,0.90
2023-02-27T13:12:35.082Z,0.80
2023-02-27T13:15:24.638Z,1.20
2023-02-27T13:17:55.979Z,0.70
2023-02-27T13:20:30.860Z,2.10
2023-02-27T13:23:19.751Z,1.60
2023-02-27T13:25:52.082Z,1.10
2023-02-27T13:28:25.855Z,1.08
2023-02-27T13:31:22.817Z,0.70
2023-02-27T13:33:53.927Z,0.90
2023-02-27T13:36:31.220Z,1.15
2023-02-27T13:38:59.317Z,1.20
2023-02-27T13:41:30.428Z,1.40
2023-02-27T13:46:34.671Z,1.55
2023-02-27T13:49:05.543Z,1.35
2023-02-27T13:51:39.560Z,1.15
2023-02-27T13:54:17.135Z,1.45
2023-02-27T13:59:45.411Z,1.30
2023-02-27T14:02:13.298Z,1.15
2023-02-27T14:04:46.765Z,1.00
2023-02-27T14:07:22.383Z,0.90
2023-02-27T14:10:02.880Z,1.08
2023-02-27T14:12:44.518Z,1.20
2023-02-27T14:15:22.738Z,5.65
2023-02-27T14:18:11.258Z,1.80
2023-02-27T14:20:41.951Z,1.08
2023-02-27T14:23:28.945Z,1.20
2023-02-27T14:26:18.727Z,1.13
2023-02-27T14:28:56.937Z,1.50
2023-02-27T14:31:33.272Z,0.93
2023-02-27T14:34:07.316Z,1.63
2023-02-27T14:36:47.064Z,0.65
2023-02-27T14:39:28.826Z,0.60
2023-02-27T14:42:23.075Z,0.68
2023-02-27T14:44:52.246Z,0.90
2023-02-27T14:47:27.908Z,0.77
2023-02-27T14:49:57.271Z,0.70
2023-02-27T14:52:31.344Z,0.88
2023-02-27T14:55:35.231Z,1.08
2023-02-27T14:58:18.179Z,0.85
2023-02-27T15:01:08.591Z,1.08
2023-02-27T15:03:41.168Z,0.95
2023-02-27T15:06:19.594Z,1.00
2023-02-27T15:08:51.574Z,0.80
2023-02-27T15:11:22.564Z,0.85
2023-02-27T15:14:02.562Z,0.80
2023-02-27T15:16:38.504Z,1.00
2023-02-27T15:19:19.957Z,1.10
2023-02-27T15:21:53.569Z,1.10
2023-02-27T15:24:40.665Z,1.30
2023-02-27T15:27:23.746Z,1.15
2023-02-27T15:29:57.832Z,1.30
2023-02-27T15:32:35.819Z,1.30
2023-02-27T15:35:16.133Z,1.63
2023-02-27T15:37:51.181Z,1.48
2023-02-27T15:40:23.062Z,1.25
2023-02-27T15:42:52.668Z,1.65
2023-02-27T15:45:23.407Z,1.42
2023-02-27T15:47:51.538Z,1.25
2023-02-27T15:50:19.352Z,1.30
2023-02-27T15:53:04.169Z,1.45
2023-02-27T15:55:44.470Z,1.20
2023-02-27T15:58:20.690Z,1.02
2023-02-27T16:00:48.837Z,1.42
2023-02-27T16:03:23.164Z,1.20
2023-02-27T16:05:54.164Z,11.48
2023-02-27T16:08:22.641Z,7.30
2023-02-27T16:10:52.737Z,7.32
2023-02-27T16:13:30.284Z,6.13
2023-02-27T16:16:04.390Z,6.63
2023-02-27T16:18:32.338Z,4.18
2023-02-27T16:21:12.299Z,5.68
2023-02-27T16:23:40.480Z,3.17
2023-02-27T16:26:33.889Z,2.50
2023-02-27T16:29:23.795Z,2.22
2023-02-27T16:31:57.125Z,2.40
2023-02-27T16:34:47.080Z,1.60
2023-02-27T16:37:20.599Z,1.00
2023-02-27T16:39:53.289Z,1.48
2023-02-27T16:42:21.648Z,1.60
2023-02-27T16:44:49.877Z,1.27
2023-02-27T16:47:17.850Z,1.30
2023-02-27T16:49:47.384Z,1.58
2023-02-27T16:52:15.229Z,1.30
2023-02-27T16:54:43.163Z,1.70
2023-02-27T16:57:11.863Z,1.52
2023-02-27T16:59:42.100Z,2.58
2023-02-27T17:02:16.945Z,2.60
2023-02-27T17:04:50.724Z,2.40
2023-02-27T17:07:20.278Z,2.65
2023-02-27T17:09:48.722Z,2.08
2023-02-27T17:12:16.869Z,2.08
2023-02-27T17:14:44.872Z,2.53
2023-02-27T17:17:12.833Z,2.67
2023-02-27T17:19:41.098Z,2.58
2023-02-27T17:22:09.017Z,2.28
2023-02-27T17:24:38.318Z,3.47
2023-02-27T17:27:06.496Z,2.50
2023-02-27T17:29:34.540Z,2.65
2023-02-27T17:32:02.890Z,2.20
2023-02-27T17:34:30.955Z,2.08
2023-02-27T17:36:58.844Z,1.90
2023-02-27T17:39:26.767Z,2.60
2023-02-27T17:41:55.492Z,2.00
2023-02-27T17:44:23.460Z,2.00
2023-02-27T17:46:51.396Z,1.70
2023-02-27T17:49:19.309Z,1.95
2023-02-27T17:51:47.317Z,2.25
2023-02-27T17:54:16.157Z,2.30
2023-02-27T17:56:44.601Z,3.15
2023-02-27T17:59:15.338Z,3.03
2023-02-27T18:01:43.285Z,4.40
2023-02-27T18:04:12.612Z,3.42
2023-02-27T18:06:46.586Z,3.40
2023-02-27T18:09:17.589Z,2.88
2023-02-27T18:11:45.622Z,2.13
2023-02-27T18:14:13.548Z,2.45
2023-02-27T18:16:42.482Z,3.08
2023-02-27T18:19:10.451Z,3.15
2023-02-27T18:21:39.062Z,3.00
2023-02-27T18:24:07.211Z,2.50
2023-02-27T18:26:35.775Z,3.75
2023-02-27T18:29:07.165Z,3.95
2023-02-27T18:31:38.568Z,4.57
2023-02-27T18:36:35.634Z,2.85
2023-02-27T18:39:06.075Z,3.72
2023-02-27T18:41:34.794Z,4.05
2023-02-27T18:44:03.007Z,5.18
2023-02-27T18:46:34.365Z,5.38
2023-02-27T18:51:31.850Z,12.70
2023-02-27T18:54:01.806Z,11.05
2023-02-27T18:56:31.829Z,5.97
2023-02-27T18:59:03.074Z,6.47
2023-02-27T19:01:33.614Z,5.13
2023-02-27T19:04:06.413Z,5.15
2023-02-27T19:06:38.000Z,5.10
2023-02-27T19:09:08.123Z,4.90
2023-02-27T19:11:43.495Z,4.10
2023-02-27T19:14:14.572Z,3.53
2023-02-27T19:16:43.177Z,4.25
2023-02-27T19:19:12.070Z,4.40
2023-02-27T19:21:40.762Z,4.15
2023-02-27T19:24:10.268Z,5.55
2023-02-27T19:26:38.691Z,4.38
2023-02-27T19:29:08.328Z,4.82
2023-02-27T19:31:36.425Z,3.63
2023-02-27T19:34:04.439Z,4.18
2023-02-27T19:36:32.500Z,3.85
2023-02-27T19:39:00.459Z,3.63
2023-02-27T19:41:29.774Z,3.20
2023-02-27T19:43:58.277Z,3.33
2023-02-27T19:46:32.620Z,4.07
2023-02-27T19:49:04.215Z,4.10
2023-02-27T19:51:32.868Z,5.40
2023-02-27T19:54:01.303Z,6.82
2023-02-27T19:56:30.857Z,9.35
2023-02-27T19:59:02.088Z,8.60
2023-02-27T20:01:33.986Z,6.97
2023-02-27T20:04:03.082Z,8.90
2023-02-27T20:06:34.205Z,12.95
2023-02-27T20:09:02.164Z,6.93
2023-02-27T20:11:31.970Z,8.18
2023-02-27T20:14:00.331Z,8.02
2023-02-27T20:16:31.506Z,6.75
2023-02-27T20:19:00.199Z,5.50
2023-02-27T20:21:32.354Z,5.68
2023-02-27T20:24:01.547Z,5.60
2023-02-27T20:26:39.924Z,4.72
2023-02-27T20:29:11.396Z,4.35
2023-02-27T20:31:41.558Z,5.53
2023-02-27T20:34:12.545Z,5.20
2023-02-27T20:36:41.081Z,5.30
2023-02-27T20:39:11.075Z,5.43
2023-02-27T20:41:39.701Z,5.30
2023-02-27T20:44:09.628Z,4.40
2023-02-27T20:46:37.637Z,4.30
2023-02-27T20:49:07.123Z,4.30
2023-02-27T20:51:39.266Z,3.75
2023-02-27T20:54:11.058Z,3.33
2023-02-27T20:56:42.260Z,3.88
2023-02-27T20:59:14.164Z,4.20
2023-02-27T21:01:43.977Z,3.17
2023-02-27T21:04:11.992Z,3.15
2023-02-27T21:06:39.912Z,3.17
2023-02-27T21:09:08.064Z,3.60
2023-02-27T21:11:38.479Z,3.80
2023-02-27T21:14:12.902Z,3.20
2023-02-27T21:16:41.664Z,3.10
2023-02-27T21:19:10.004Z,3.63
2023-02-27T21:21:38.411Z,3.30
2023-02-27T21:24:07.174Z,4.15
2023-02-27T21:26:39.943Z,3.88
2023-02-27T21:29:11.572Z,3.75
2023-02-27T21:31:40.783Z,3.20
2023-02-27T21:34:12.671Z,4.05
2023-02-27T21:36:45.991Z,3.83
2023-02-27T21:39:19.887Z,3.78
2023-02-27T21:41:47.952Z,3.90
2023-02-27T21:44:18.577Z,3.45
2023-02-27T21:46:47.019Z,4.13
2023-02-27T21:49:20.506Z,3.67
2023-02-27T21:51:48.728Z,3.75
2023-02-27T21:54:18.378Z,4.88
2023-02-27T21:56:48.273Z,7.15
2023-02-27T21:59:17.919Z,5.30
2023-02-27T22:01:48.648Z,5.13
2023-02-27T22:04:18.094Z,4.82
2023-02-27T22:06:46.252Z,7.93
2023-02-27T22:09:17.808Z,6.50
2023-02-27T22:11:49.620Z,4.97
2023-02-27T22:14:17.801Z,3.67
2023-02-27T22:16:45.692Z,3.08
2023-02-27T22:19:20.651Z,2.88
2023-02-27T22:21:49.041Z,2.42
2023-02-27T22:24:17.753Z,2.90
2023-02-27T22:26:46.791Z,2.47
2023-02-27T22:29:14.723Z,2.97
2023-02-27T22:31:42.737Z,3.15
2023-02-27T22:34:19.751Z,3.25
2023-02-27T22:36:53.481Z,3.20
2023-02-27T22:39:21.903Z,3.10
2023-02-27T22:41:51.207Z,3.28
2023-02-27T22:44:19.564Z,3.45
2023-02-27T22:46:49.893Z,3.40
2023-02-27T22:49:23.192Z,3.70
2023-02-27T22:51:52.906Z,3.30
2023-02-27T22:54:23.272Z,3.63
2023-02-27T22:56:57.580Z,3.40
2023-02-27T22:59:26.668Z,4.43
2023-02-27T23:01:57.680Z,5.03
2023-02-27T23:04:29.535Z,4.80
2023-02-27T23:06:57.654Z,4.05
2023-02-27T23:09:28.544Z,3.90
2023-02-27T23:14:24.935Z,4.97
2023-02-27T23:16:52.954Z,4.38
2023-02-27T23:19:22.758Z,5.22
2023-02-27T23:21:51.180Z,4.10
2023-02-27T23:24:20.246Z,4.03
2023-02-27T23:26:50.171Z,3.10
2023-02-27T23:29:18.406Z,3.42
2023-02-27T23:31:46.683Z,2.88
2023-02-27T23:34:14.927Z,3.20
2023-02-27T23:36:42.912Z,3.17
2023-02-27T23:39:11.116Z,3.13
2023-02-27T23:41:39.151Z,3.35
2023-02-27T23:44:25.590Z,3.35
2023-02-27T23:46:53.854Z,3.13
2023-02-27T23:49:21.773Z,3.10
2023-02-27T23:51:49.674Z,3.38
2023-02-27T23:54:17.604Z,3.40
2023-02-27T23:56:47.916Z,2.45
2023-02-27T23:59:15.849Z,2.97
